Time;durP1;ratioP1;P1;durP2;ratioP2;P2;SDS_P1;SDS_P2;PMS_P1;PMS_P2;Temp;Humidity;BMP_temperature;BMP_pressure;BME280_temperature;BME280_humidity;BME280_pressure;Samples;Min_cycle;Max_cycle;Signal;HPM_P1;HPM_P2
2022/11/21 00:08:34;;;;;;;8.70;4.40;;;1.50;99.90;;;;;;6182914;23;20021;-87
2022/11/21 00:11:02;;;;;;;10.95;4.85;;;1.50;99.90;;;;;;6267212;22;20078;-87
2022/11/21 00:16:06;;;;;;;11.27;5.35;;;1.40;99.90;;;;;;6195804;23;20372;-89
2022/11/21 00:18:37;;;;;;;11.38;4.60;;;1.40;99.90;;;;;;6122722;23;20021;-90
2022/11/21 00:28:49;;;;;;;11.93;5.90;;;1.40;99.90;;;;;;6194834;23;20032;-89
2022/11/21 00:31:59;;;;;;;10.82;5.55;;;1.40;99.90;;;;;;6098496;23;20025;-89
2022/11/21 00:38:36;;;;;;;10.88;5.25;;;1.40;99.90;;;;;;6252886;23;20027;-96
2022/11/21 00:41:03;;;;;;;12.57;4.97;;;1.30;99.90;;;;;;6200830;23;20016;-94
2022/11/21 00:43:28;;;;;;;12.47;5.83;;;1.40;99.90;;;;;;6198335;23;20022;-95
2022/11/21 00:45:54;;;;;;;14.23;6.40;;;1.30;99.90;;;;;;6198526;23;20043;-95
2022/11/21 00:48:20;;;;;;;14.60;5.68;;;1.40;99.90;;;;;;6198167;23;20108;-94
2022/11/21 00:50:48;;;;;;;13.07;5.45;;;1.30;99.90;;;;;;6197422;23;20099;-93
2022/11/21 01:07:15;;;;;;;13.13;4.93;;;1.20;99.90;;;;;;6156270;23;20472;-94
2022/11/21 01:09:41;;;;;;;11.75;4.68;;;1.20;99.90;;;;;;6131799;23;20100;-92
2022/11/21 01:12:07;;;;;;;11.82;5.03;;;1.10;99.90;;;;;;6107425;23;20017;-91
2022/11/21 01:14:32;;;;;;;12.07;5.40;;;1.10;99.90;;;;;;6131709;23;20054;-93
2022/11/21 01:16:58;;;;;;;10.95;5.28;;;1.10;99.90;;;;;;6132035;23;20020;-93
2022/11/21 01:24:34;;;;;;;9.70;4.75;;;1.00;99.90;;;;;;6181250;23;20068;-93
2022/11/21 01:35:07;;;;;;;11.52;5.35;;;0.90;99.90;;;;;;6181733;23;20021;-95
2022/11/21 01:40:21;;;;;;;15.38;6.20;;;1.00;99.90;;;;;;6180885;23;20454;-94
2022/11/21 01:46:24;;;;;;;13.77;5.78;;;0.90;99.90;;;;;;6180639;23;20096;-94
2022/11/21 01:49:01;;;;;;;14.45;5.22;;;0.90;99.90;;;;;;6056819;23;20030;-93
2022/11/21 01:54:16;;;;;;;12.25;5.38;;;0.90;99.90;;;;;;6178691;23;20017;-93
2022/11/21 02:17:28;;;;;;;13.25;6.00;;;0.80;99.90;;;;;;6181502;23;20029;-94
2022/11/21 02:41:25;;;;;;;14.40;6.22;;;0.80;99.90;;;;;;6176211;23;20098;-93
2022/11/21 03:20:15;;;;;;;13.05;6.50;;;0.60;99.90;;;;;;6181586;23;20021;-94
2022/11/21 03:25:16;;;;;;;16.65;6.72;;;0.60;99.90;;;;;;6180637;23;20346;-94
2022/11/21 03:30:19;;;;;;;12.68;5.75;;;0.60;99.90;;;;;;6161343;23;20021;-92
2022/11/21 03:32:45;;;;;;;15.20;6.55;;;0.60;99.90;;;;;;6132008;23;20024;-92
2022/11/21 03:35:10;;;;;;;10.52;5.22;;;0.60;99.90;;;;;;6131623;23;20312;-93
2022/11/21 03:37:36;;;;;;;13.48;5.55;;;0.60;99.90;;;;;;6132167;23;20017;-93
2022/11/21 03:40:02;;;;;;;13.75;6.90;;;0.60;99.90;;;;;;6133118;23;20009;-93
2022/11/21 03:42:28;;;;;;;16.75;6.93;;;0.60;99.90;;;;;;6261580;22;20067;-92
2022/11/21 03:45:49;;;;;;;14.88;6.85;;;0.60;99.90;;;;;;6137940;23;20465;-95
2022/11/21 03:48:14;;;;;;;13.40;5.60;;;0.50;99.90;;;;;;6158864;23;20017;-95
2022/11/21 03:50:43;;;;;;;15.63;6.35;;;0.50;99.90;;;;;;6157348;23;20043;-93
2022/11/21 03:53:10;;;;;;;13.70;6.03;;;0.50;99.90;;;;;;6156698;23;20445;-95
2022/11/21 04:03:22;;;;;;;13.68;7.68;;;0.50;99.90;;;;;;6153319;23;20102;-93
2022/11/21 04:05:48;;;;;;;15.80;7.50;;;0.50;99.90;;;;;;6079042;23;20450;-93
2022/11/21 04:08:13;;;;;;;18.42;9.02;;;0.50;99.90;;;;;;6102952;23;20285;-93
2022/11/21 04:15:50;;;;;;;18.45;8.50;;;0.70;99.90;;;;;;6177807;22;20454;-94
2022/11/21 04:18:16;;;;;;;16.67;8.27;;;0.70;99.90;;;;;;6260696;22;20170;-94
2022/11/21 04:51:46;;;;;;;16.00;7.85;;;0.80;99.90;;;;;;6151683;23;20029;-91
2022/11/21 04:54:12;;;;;;;16.50;7.78;;;0.80;99.90;;;;;;6102545;23;20034;-93
2022/11/21 05:08:46;;;;;;;16.77;7.80;;;0.60;99.90;;;;;;6284425;22;20032;-93
2022/11/21 05:30:47;;;;;;;17.48;7.88;;;0.30;99.90;;;;;;6205260;22;20021;-94
2022/11/21 05:33:13;;;;;;;16.48;7.82;;;0.30;99.90;;;;;;6148561;23;20017;-90
2022/11/21 05:35:38;;;;;;;13.50;6.88;;;0.20;99.90;;;;;;6129257;23;20086;-91
2022/11/21 05:38:04;;;;;;;15.68;7.70;;;0.10;99.90;;;;;;6129549;23;20013;-90
2022/11/21 05:40:34;;;;;;;15.95;7.10;;;0.00;99.90;;;;;;6078242;23;20018;-92
2022/11/21 05:45:55;;;;;;;16.95;7.65;;;-0.10;99.90;;;;;;6153705;22;20450;-91
2022/11/21 05:49:50;;;;;;;14.82;8.02;;;-0.10;99.90;;;;;;6129577;23;20055;-93
2022/11/21 05:52:09;;;;;;;15.57;8.00;;;-0.10;99.90;;;;;;6103556;22;20396;-91
2022/11/21 05:54:35;;;;;;;15.25;7.68;;;-0.10;99.90;;;;;;6104278;23;20017;-93
2022/11/21 06:42:38;;;;;;;16.75;8.65;;;-0.60;99.90;;;;;;6144110;22;1134108;-92
2022/11/21 06:52:58;;;;;;;14.73;7.97;;;-0.60;99.90;;;;;;6290419;22;20086;-91
2022/11/21 06:55:27;;;;;;;17.23;8.02;;;-0.60;99.90;;;;;;6131962;23;20044;-92
2022/11/21 06:58:24;;;;;;;16.77;9.00;;;-0.60;99.90;;;;;;6131562;23;20013;-91
2022/11/21 07:11:35;;;;;;;15.85;8.00;;;-0.50;99.90;;;;;;6136990;22;20030;-90
2022/11/21 07:50:36;;;;;;;17.17;8.52;;;-0.40;99.90;;;;;;6254027;22;20026;-94
2022/11/21 07:53:04;;;;;;;18.63;9.80;;;-0.40;99.90;;;;;;6053919;23;20024;-90
2022/11/21 07:55:30;;;;;;;17.48;9.23;;;-0.40;99.90;;;;;;6102666;23;20096;-92
2022/11/21 07:58:03;;;;;;;21.88;8.95;;;-0.30;99.90;;;;;;6102441;23;20067;-94
2022/11/21 08:00:31;;;;;;;21.95;10.95;;;-0.30;99.90;;;;;;6102509;23;20075;-92
2022/11/21 09:07:56;;;;;;;21.20;10.02;;;0.70;99.90;;;;;;6137553;22;20102;-89
2022/11/21 09:10:22;;;;;;;22.38;10.18;;;0.70;99.90;;;;;;6101230;23;20451;-91
2022/11/21 09:12:48;;;;;;;21.38;11.00;;;0.80;99.90;;;;;;6101558;23;20021;-91
2022/11/21 09:18:02;;;;;;;19.75;10.32;;;0.90;99.90;;;;;;6125612;23;20021;-89
2022/11/21 09:20:28;;;;;;;18.10;9.55;;;0.90;99.90;;;;;;6101442;23;20025;-90
2022/11/21 09:22:54;;;;;;;19.97;10.33;;;0.90;99.90;;;;;;6101284;23;20446;-91
2022/11/21 09:25:19;;;;;;;19.55;9.85;;;1.00;99.90;;;;;;6101219;23;20249;-92
2022/11/21 09:27:45;;;;;;;19.35;8.65;;;1.00;99.90;;;;;;6076742;23;20092;-92
2022/11/21 09:30:11;;;;;;;18.90;9.05;;;1.00;99.90;;;;;;6100501;23;20110;-90
2022/11/21 09:32:37;;;;;;;20.23;9.15;;;1.10;99.90;;;;;;6101086;23;20029;-91
2022/11/21 09:35:03;;;;;;;18.58;9.27;;;1.10;99.90;;;;;;6077139;23;20443;-90
2022/11/21 09:37:29;;;;;;;21.67;9.18;;;1.20;99.90;;;;;;6100759;23;20033;-90
2022/11/21 09:39:55;;;;;;;17.85;9.18;;;1.20;99.90;;;;;;6101430;23;20024;-90
2022/11/21 09:42:36;;;;;;;22.92;10.30;;;1.30;99.90;;;;;;6077164;23;20048;-91
2022/11/21 09:45:08;;;;;;;19.23;9.02;;;1.30;99.90;;;;;;6101184;23;20074;-90
2022/11/21 09:47:39;;;;;;;21.63;9.05;;;1.30;99.90;;;;;;6100546;23;20017;-91
2022/11/21 09:50:27;;;;;;;19.92;8.95;;;1.30;99.90;;;;;;6125106;23;20028;-89
2022/11/21 09:53:02;;;;;;;;;;;1.30;99.90;;;;;;6101487;23;20385;-89
2022/11/21 09:55:34;;;;;;;18.98;8.70;;;1.30;99.90;;;;;;6125353;23;19951;-90
2022/11/21 09:58:08;;;;;;;17.05;8.80;;;1.40;99.90;;;;;;6101040;23;20052;-90
2022/11/21 10:00:34;;;;;;;18.65;8.75;;;1.40;99.90;;;;;;6100892;23;20020;-90
2022/11/21 10:03:00;;;;;;;22.27;9.32;;;1.50;99.90;;;;;;6100670;23;20021;-89
2022/11/21 10:05:50;;;;;;;19.20;9.77;;;1.50;99.90;;;;;;6100868;23;20057;-88
2022/11/21 10:08:34;;;;;;;17.95;7.97;;;1.50;99.90;;;;;;6114645;23;20041;-91
2022/11/21 10:11:17;;;;;;;16.70;8.27;;;1.50;99.90;;;;;;6154554;23;20029;-92
2022/11/21 10:13:56;;;;;;;18.67;8.60;;;1.60;99.90;;;;;;6154314;23;20017;-89
2022/11/21 10:16:33;;;;;;;20.90;9.15;;;1.60;99.90;;;;;;6155230;23;20021;-90
2022/11/21 10:19:26;;;;;;;16.83;8.43;;;1.60;99.90;;;;;;6155807;23;20017;-89
2022/11/21 10:22:21;;;;;;;19.23;8.18;;;1.60;99.90;;;;;;6181233;23;20039;-90
2022/11/21 10:24:46;;;;;;;19.73;8.40;;;1.70;99.90;;;;;;6174814;23;20013;-91
2022/11/21 10:27:15;;;;;;;19.35;9.13;;;1.70;99.90;;;;;;6180779;23;20147;-90
2022/11/21 10:29:53;;;;;;;17.33;8.90;;;1.70;99.90;;;;;;6155935;23;20013;-89
2022/11/21 10:32:26;;;;;;;16.90;7.80;;;1.70;99.90;;;;;;6180476;23;20021;-91
2022/11/21 10:34:58;;;;;;;17.08;8.82;;;1.70;99.90;;;;;;6155905;23;20045;-89
2022/11/21 10:37:41;;;;;;;17.30;7.57;;;1.80;99.90;;;;;;6155958;23;20021;-89
2022/11/21 10:40:31;;;;;;;17.05;8.63;;;1.80;99.90;;;;;;6155489;23;20021;-89
2022/11/21 10:46:05;;;;;;;14.63;7.60;;;1.90;99.90;;;;;;6180379;23;20100;-88
2022/11/21 10:48:31;;;;;;;17.98;8.65;;;1.90;99.90;;;;;;6156029;23;20122;-90
2022/11/21 10:51:17;;;;;;;15.90;7.53;;;2.00;99.90;;;;;;6155449;23;20014;-88
2022/11/21 10:56:28;;;;;;;19.15;8.20;;;2.00;99.90;;;;;;6159237;23;20021;-89
2022/11/21 10:58:58;;;;;;;16.50;7.85;;;2.00;99.90;;;;;;6155482;23;20020;-89
2022/11/21 11:01:30;;;;;;;16.02;7.57;;;2.00;99.90;;;;;;6155346;23;20454;-89
2022/11/21 11:04:08;;;;;;;18.33;8.18;;;2.00;99.90;;;;;;6155420;23;20085;-89
2022/11/21 11:06:35;;;;;;;17.23;8.90;;;2.00;99.90;;;;;;6155548;23;20343;-90
2022/11/21 11:09:02;;;;;;;17.58;8.68;;;2.00;99.90;;;;;;6155236;23;20021;-90
2022/11/21 11:11:28;;;;;;;19.55;8.57;;;2.00;99.90;;;;;;6131042;23;20056;-89
2022/11/21 11:14:00;;;;;;;18.08;8.52;;;2.00;99.90;;;;;;6155444;23;20044;-88
2022/11/21 11:16:28;;;;;;;16.63;7.90;;;2.00;99.90;;;;;;6180129;23;20341;-91
2022/11/21 11:19:19;;;;;;;15.10;7.38;;;2.00;99.90;;;;;;6155513;23;20096;-91
2022/11/21 11:21:46;;;;;;;17.25;7.25;;;2.00;99.90;;;;;;6179423;23;20151;-89
2022/11/21 11:24:12;;;;;;;12.27;6.60;;;2.10;99.90;;;;;;6180011;23;20036;-88
2022/11/21 11:26:59;;;;;;;17.73;7.40;;;2.20;99.90;;;;;;6156016;23;20457;-92
2022/11/21 11:29:40;;;;;;;14.65;8.10;;;2.30;99.90;;;;;;6155812;23;20115;-88
2022/11/21 11:32:15;;;;;;;15.02;6.82;;;2.40;99.90;;;;;;6155846;23;20091;-91
2022/11/21 11:34:49;;;;;;;14.00;6.53;;;2.60;99.90;;;;;;6155631;23;20538;-91
2022/11/21 11:37:40;;;;;;;11.90;5.82;;;2.70;99.90;;;;;;6156027;23;20024;-90
2022/11/21 11:40:22;;;;;;;15.25;7.05;;;2.80;99.90;;;;;;6166966;23;20021;-91
2022/11/21 11:52:23;;;;;;;10.68;5.55;;;3.10;99.90;;;;;;6182168;23;20450;-89
2022/11/21 11:54:52;;;;;;;14.48;6.25;;;3.20;99.90;;;;;;6160990;23;20017;-88
2022/11/21 11:57:19;;;;;;;12.90;6.20;;;3.10;99.90;;;;;;6170201;22;20025;-88
2022/11/21 12:00:33;;;;;;;13.23;5.80;;;3.10;99.90;;;;;;6198334;23;20017;-88
2022/11/21 12:03:14;;;;;;;11.68;5.60;;;3.20;99.90;;;;;;6163678;23;20104;-89
2022/11/21 12:05:55;;;;;;;14.40;5.82;;;3.20;99.90;;;;;;6156582;22;20017;-90
2022/11/21 12:08:50;;;;;;;12.25;5.63;;;3.20;99.90;;;;;;6156024;23;20052;-91
2022/11/21 12:15:47;;;;;;;10.75;5.28;;;3.20;99.90;;;;;;6179789;23;20430;-88
2022/11/21 12:17:07;;;;;;;12.75;5.00;;;3.30;99.90;;;;;;6180055;23;20025;-89
2022/11/21 12:19:35;;;;;;;11.20;5.60;;;3.30;99.90;;;;;;6155102;23;20381;-91
2022/11/21 12:22:05;;;;;;;11.20;5.95;;;3.30;99.90;;;;;;6155869;23;20017;-90
2022/11/21 12:24:32;;;;;;;10.10;5.13;;;3.40;99.90;;;;;;6155465;23;20153;-89
2022/11/21 12:27:14;;;;;;;10.15;4.97;;;3.40;99.90;;;;;;6155048;23;20025;-88
2022/11/21 12:30:17;;;;;;;11.45;4.18;;;3.40;99.90;;;;;;6155307;23;20077;-88
2022/11/21 12:33:11;;;;;;;11.73;4.57;;;3.40;99.90;;;;;;6154812;23;20344;-91
2022/11/21 12:35:46;;;;;;;10.10;4.60;;;3.40;99.90;;;;;;6180090;23;20028;-88
2022/11/21 12:38:21;;;;;;;10.82;4.93;;;3.40;99.90;;;;;;6155007;23;20044;-91
2022/11/21 12:44:15;;;;;;;11.52;5.68;;;3.50;99.90;;;;;;6179991;23;20017;-90
2022/11/21 12:47:11;;;;;;;13.93;6.40;;;3.40;99.90;;;;;;6180025;23;20465;-92
2022/11/21 12:55:41;;;;;;;14.68;6.22;;;3.30;99.90;;;;;;6180546;23;20025;-91
2022/11/21 12:58:31;;;;;;;12.93;6.25;;;3.30;99.90;;;;;;6155718;23;20397;-91
2022/11/21 13:01:17;;;;;;;15.05;6.53;;;3.30;99.90;;;;;;6155402;23;20021;-91
2022/11/21 13:03:56;;;;;;;14.02;5.75;;;3.30;99.90;;;;;;6180314;23;20043;-88
2022/11/21 13:06:26;;;;;;;13.75;6.50;;;3.30;99.90;;;;;;6155411;23;20056;-89
2022/11/21 13:08:54;;;;;;;14.07;6.28;;;3.30;99.90;;;;;;6155094;23;20327;-89
2022/11/21 13:14:45;;;;;;;12.82;6.20;;;3.20;99.90;;;;;;6179903;23;20025;-90
2022/11/21 13:17:33;;;;;;;13.65;6.65;;;3.20;99.90;;;;;;6154892;23;20020;-91
2022/11/21 13:20:01;;;;;;;13.15;6.05;;;3.20;99.90;;;;;;6155113;23;20036;-90
2022/11/21 13:22:36;;;;;;;10.40;5.50;;;3.20;99.90;;;;;;6154802;23;20096;-88
2022/11/21 13:25:29;;;;;;;13.68;5.75;;;3.20;99.90;;;;;;6154835;23;20415;-93
2022/11/21 13:28:18;;;;;;;13.65;5.90;;;3.20;99.90;;;;;;6204550;23;20021;-89
2022/11/21 13:30:47;;;;;;;11.35;5.25;;;3.20;99.90;;;;;;6154652;23;20021;-89
2022/11/21 13:33:36;;;;;;;14.40;6.47;;;3.20;99.90;;;;;;6179394;23;20369;-88
2022/11/21 13:36:01;;;;;;;;;;;3.20;99.90;;;;;;6155463;23;20092;-89
2022/11/21 13:38:27;;;;;;;13.52;5.93;;;3.20;99.90;;;;;;6154529;23;20005;-89
2022/11/21 13:43:37;;;;;;;10.20;4.32;;;3.20;99.90;;;;;;6179344;23;20319;-88
2022/11/21 13:46:03;;;;;;;10.77;4.95;;;3.20;99.90;;;;;;6179352;23;20053;-91
2022/11/21 13:48:29;;;;;;;12.18;4.50;;;3.20;99.90;;;;;;6179185;23;20442;-91
2022/11/21 13:51:01;;;;;;;10.50;5.27;;;3.20;99.90;;;;;;6154966;23;20027;-89
2022/11/21 13:53:41;;;;;;;11.27;4.60;;;3.20;99.90;;;;;;6156095;23;20058;-90
2022/11/21 13:56:31;;;;;;;10.48;5.22;;;3.20;99.90;;;;;;6156041;23;20021;-89
2022/11/21 13:59:28;;;;;;;13.68;5.65;;;3.20;99.90;;;;;;6156102;23;20028;-91
2022/11/21 14:02:27;;;;;;;11.98;5.25;;;3.30;99.90;;;;;;6155856;23;20021;-89
2022/11/21 14:05:12;;;;;;;10.07;4.22;;;3.30;99.90;;;;;;6155537;23;20017;-89
2022/11/21 14:07:39;;;;;;;8.50;4.00;;;3.30;99.90;;;;;;6155439;23;20076;-91
2022/11/21 14:10:22;;;;;;;11.88;5.45;;;3.30;99.90;;;;;;6155346;23;20473;-91
2022/11/21 14:12:51;;;;;;;9.75;4.25;;;3.30;99.90;;;;;;6155835;23;20043;-91
2022/11/21 14:15:45;;;;;;;10.07;4.53;;;3.30;99.90;;;;;;6155986;23;20078;-91
2022/11/21 14:18:31;;;;;;;9.15;4.93;;;3.40;99.90;;;;;;6156111;23;20024;-90
2022/11/21 14:20:59;;;;;;;10.48;4.75;;;3.40;99.90;;;;;;6155769;23;20013;-91
2022/11/21 14:23:33;;;;;;;9.57;4.35;;;3.40;99.90;;;;;;6131586;23;20024;-92
2022/11/21 14:26:04;;;;;;;9.65;4.43;;;3.40;99.90;;;;;;6156169;23;20019;-90
2022/11/21 14:28:33;;;;;;;11.93;5.47;;;3.40;99.90;;;;;;6156029;23;20045;-91
2022/11/21 14:31:06;;;;;;;10.88;4.75;;;3.40;99.90;;;;;;6155910;23;20017;-89
2022/11/21 14:33:33;;;;;;;12.13;4.75;;;3.40;99.90;;;;;;6155766;23;20024;-89
2022/11/21 14:36:00;;;;;;;12.05;4.97;;;3.50;99.90;;;;;;6156131;23;20017;-91
2022/11/21 14:38:28;;;;;;;9.95;4.95;;;3.40;99.90;;;;;;6155930;23;20020;-90
2022/11/21 14:41:23;;;;;;;13.40;5.75;;;3.40;99.90;;;;;;6155921;23;20021;-90
2022/11/21 14:44:09;;;;;;;12.50;5.93;;;3.40;99.90;;;;;;6155632;23;20020;-90
2022/11/21 14:47:25;;;;;;;14.32;5.93;;;3.40;99.90;;;;;;6160533;23;20013;-91
2022/11/21 14:49:29;;;;;;;12.60;5.65;;;3.40;99.90;;;;;;6190307;23;20029;-90
2022/11/21 14:52:10;;;;;;;15.52;5.78;;;3.50;99.90;;;;;;6155884;23;20017;-89
2022/11/21 14:54:59;;;;;;;13.13;6.25;;;3.40;99.90;;;;;;6156150;23;20021;-91
2022/11/21 14:57:46;;;;;;;13.35;5.15;;;3.40;99.90;;;;;;6156898;23;20096;-91
2022/11/21 15:00:19;;;;;;;14.32;6.00;;;3.40;99.90;;;;;;6133008;23;20407;-90
2022/11/21 15:05:33;;;;;;;13.55;5.22;;;3.50;99.90;;;;;;6200677;23;20086;-91
2022/11/21 15:08:02;;;;;;;11.77;5.57;;;3.50;99.90;;;;;;6281162;22;20029;-92
2022/11/21 15:10:39;;;;;;;11.27;5.25;;;3.50;99.90;;;;;;6190432;23;20052;-90
2022/11/21 15:13:14;;;;;;;12.82;5.68;;;3.40;99.90;;;;;;6158118;23;20099;-91
2022/11/21 15:15:52;;;;;;;12.63;5.45;;;3.50;99.90;;;;;;6156139;23;20017;-90
2022/11/21 15:18:18;;;;;;;;;;;3.50;99.90;;;;;;6156854;23;20413;-89
2022/11/21 15:20:52;;;;;;;15.02;6.72;;;3.50;99.90;;;;;;6180185;23;19916;-90
2022/11/21 15:23:30;;;;;;;15.82;6.97;;;3.50;99.90;;;;;;6155641;23;20122;-92
2022/11/21 15:25:56;;;;;;;14.95;6.40;;;3.50;99.90;;;;;;6155819;23;20135;-89
2022/11/21 15:31:22;;;;;;;16.58;7.00;;;3.50;99.90;;;;;;6145689;23;20036;-88
2022/11/21 15:33:54;;;;;;;18.40;7.72;;;3.50;99.90;;;;;;6071041;23;20106;-90
2022/11/21 15:36:20;;;;;;;15.13;7.15;;;3.60;99.90;;;;;;6072655;23;20028;-90
2022/11/21 15:38:52;;;;;;;17.60;7.57;;;3.50;99.90;;;;;;6072956;23;20054;-90
2022/11/21 15:49:13;;;;;;;14.30;6.68;;;3.50;99.90;;;;;;6155070;22;20026;-90
2022/11/21 15:51:48;;;;;;;15.35;6.78;;;3.50;99.90;;;;;;6068382;23;20033;-92
2022/11/21 15:54:18;;;;;;;16.23;7.25;;;3.50;99.90;;;;;;6220615;23;20408;-90
2022/11/21 15:56:45;;;;;;;15.85;8.02;;;3.50;99.90;;;;;;6092301;23;20018;-88
2022/11/21 15:59:20;;;;;;;17.63;7.50;;;3.50;99.90;;;;;;6069475;23;20076;-88
2022/11/21 16:01:46;;;;;;;18.65;7.18;;;3.50;99.90;;;;;;6067922;23;20098;-91
2022/11/21 16:04:11;;;;;;;18.95;8.20;;;3.50;99.90;;;;;;6067712;23;20027;-91
2022/11/21 16:06:37;;;;;;;20.05;7.28;;;3.50;99.90;;;;;;6067834;23;20092;-90
2022/11/21 16:22:00;;;;;;;17.95;7.38;;;3.50;99.90;;;;;;6203163;22;20046;-90
2022/11/21 16:24:29;;;;;;;22.58;8.45;;;3.40;99.90;;;;;;6254493;22;20466;-91
2022/11/21 16:26:57;;;;;;;20.77;7.80;;;3.40;99.90;;;;;;6229920;22;20373;-89
2022/11/21 16:29:23;;;;;;;21.42;7.18;;;3.40;99.90;;;;;;6206774;22;20026;-89
2022/11/21 16:36:19;;;;;;;22.70;9.13;;;3.30;99.90;;;;;;6309113;22;20014;-89
2022/11/21 16:38:44;;;;;;;19.98;7.75;;;3.30;99.90;;;;;;6259030;22;20019;-90
2022/11/21 16:41:10;;;;;;;19.70;8.15;;;3.30;99.90;;;;;;6248538;22;20011;-86
2022/11/21 16:43:36;;;;;;;23.90;9.53;;;3.30;99.90;;;;;;6279376;22;20045;-87
2022/11/21 16:46:16;;;;;;;20.17;9.15;;;3.30;99.90;;;;;;6259354;22;20030;-89
2022/11/21 16:48:42;;;;;;;22.23;8.32;;;3.20;99.90;;;;;;6255127;22;20406;-96
2022/11/21 16:51:12;;;;;;;20.05;7.78;;;3.20;99.90;;;;;;6256686;22;20055;-87
2022/11/21 16:53:39;;;;;;;21.00;8.38;;;3.20;99.90;;;;;;6255976;22;20019;-90
2022/11/21 16:56:09;;;;;;;22.88;9.02;;;3.20;99.90;;;;;;6256343;22;20065;-93
2022/11/21 16:58:36;;;;;;;21.08;7.72;;;3.20;99.90;;;;;;6255969;22;20471;-88
2022/11/21 17:01:18;;;;;;;18.67;7.75;;;3.10;99.90;;;;;;6256109;22;20073;-96
2022/11/21 17:03:46;;;;;;;19.02;8.57;;;3.10;99.90;;;;;;6258332;22;20019;-87
2022/11/21 17:06:13;;;;;;;19.98;8.48;;;3.10;99.90;;;;;;6295237;22;19999;-88
2022/11/21 17:08:39;;;;;;;;;;;3.10;99.90;;;;;;6260930;22;20015;-87
2022/11/21 17:11:10;;;;;;;21.80;8.38;;;3.10;99.90;;;;;;6256186;22;20322;-90
2022/11/21 17:13:36;;;;;;;21.73;7.90;;;3.10;99.90;;;;;;6255691;22;20098;-95
2022/11/21 17:16:09;;;;;;;20.65;8.82;;;3.10;99.90;;;;;;6250526;22;20011;-86
2022/11/21 17:18:36;;;;;;;16.92;6.28;;;3.10;99.90;;;;;;6285918;22;20019;-90
2022/11/21 17:21:07;;;;;;;22.02;8.20;;;3.10;99.90;;;;;;6262458;22;20011;-88
2022/11/21 17:23:34;;;;;;;22.38;6.82;;;3.10;99.90;;;;;;6180278;22;20053;-94
2022/11/21 17:26:01;;;;;;;;;;;3.10;99.90;;;;;;6157350;22;20025;-87
2022/11/21 17:28:27;;;;;;;15.00;6.57;;;3.10;99.90;;;;;;6156546;22;19965;-86
2022/11/21 17:30:53;;;;;;;19.35;6.90;;;3.10;99.90;;;;;;6179960;23;20513;-86
2022/11/21 17:33:20;;;;;;;20.17;6.38;;;3.20;99.90;;;;;;6155214;23;20052;-88
2022/11/21 17:35:46;;;;;;;24.15;7.35;;;3.20;99.90;;;;;;6155999;23;20021;-90
2022/11/21 17:38:12;;;;;;;18.77;7.53;;;3.20;99.90;;;;;;6286806;22;20438;-90
2022/11/21 17:40:38;;;;;;;21.20;7.93;;;3.20;99.90;;;;;;6181913;23;20032;-92
2022/11/21 17:43:04;;;;;;;19.23;6.18;;;3.20;99.90;;;;;;6184402;23;20017;-88
2022/11/21 17:45:29;;;;;;;19.88;6.90;;;3.20;99.90;;;;;;6157248;23;20032;-87
2022/11/21 17:47:55;;;;;;;20.58;6.82;;;3.20;99.90;;;;;;6183265;23;20049;-95
2022/11/21 17:50:21;;;;;;;23.85;8.13;;;3.30;99.90;;;;;;6228216;22;20083;-93
2022/11/21 17:52:46;;;;;;;22.00;7.17;;;3.20;99.90;;;;;;6238513;23;20010;-87
2022/11/21 17:55:12;;;;;;;25.10;9.50;;;3.30;99.90;;;;;;6106282;23;20085;-89
2022/11/21 17:57:38;;;;;;;22.77;7.25;;;3.30;99.90;;;;;;6084148;23;20025;-88
2022/11/21 18:00:04;;;;;;;23.00;8.23;;;3.30;99.90;;;;;;6234866;23;20052;-94
2022/11/21 18:05:05;;;;;;;24.50;8.68;;;3.30;99.90;;;;;;6186396;23;20381;-89
2022/11/21 18:07:33;;;;;;;22.50;9.07;;;3.30;99.90;;;;;;6264244;22;20109;-94
2022/11/21 18:09:59;;;;;;;25.35;8.77;;;3.30;99.90;;;;;;6161808;23;20021;-88
2022/11/21 18:12:24;;;;;;;26.52;8.75;;;3.30;99.90;;;;;;6167396;23;20188;-86
2022/11/21 18:22:57;;;;;;;26.55;9.40;;;3.40;99.90;;;;;;6183905;23;20020;-91
2022/11/21 18:25:22;;;;;;;27.30;9.55;;;3.40;99.90;;;;;;6169317;22;20025;-89
2022/11/21 18:27:49;;;;;;;31.10;9.18;;;3.40;99.90;;;;;;6168856;23;20013;-84
2022/11/21 18:30:19;;;;;;;27.33;7.93;;;3.40;99.90;;;;;;6157018;23;20021;-86
2022/11/21 18:32:48;;;;;;;27.02;9.70;;;3.40;99.90;;;;;;6155369;23;20013;-85
2022/11/21 18:35:14;;;;;;;28.50;9.55;;;3.40;99.90;;;;;;6158762;23;20040;-85
2022/11/21 18:37:39;;;;;;;33.53;8.90;;;3.40;99.90;;;;;;6088254;23;20055;-86
2022/11/21 18:40:06;;;;;;;32.60;10.57;;;3.40;99.90;;;;;;6153296;23;20013;-85
2022/11/21 18:42:31;;;;;;;32.58;10.70;;;3.40;99.90;;;;;;6175325;22;20005;-85
2022/11/21 18:47:33;;;;;;;30.65;10.88;;;3.50;99.90;;;;;;6164805;23;20005;-85
2022/11/21 18:49:58;;;;;;;35.00;11.65;;;3.50;99.90;;;;;;6135487;23;20092;-89
2022/11/21 18:55:00;;;;;;;31.10;10.57;;;3.50;99.90;;;;;;6172951;23;20450;-91
2022/11/21 18:57:25;;;;;;;29.77;10.80;;;3.50;99.90;;;;;;6134753;23;20097;-95
2022/11/21 18:59:51;;;;;;;29.88;10.55;;;3.50;99.90;;;;;;6141231;23;20024;-88
2022/11/21 19:02:17;;;;;;;28.07;10.07;;;3.50;99.90;;;;;;6132654;23;20350;-95
2022/11/21 19:04:42;;;;;;;23.83;10.33;;;3.60;99.90;;;;;;6132263;23;20450;-95
2022/11/21 19:07:08;;;;;;;28.85;9.93;;;3.50;99.90;;;;;;6156382;23;20088;-89
2022/11/21 19:09:34;;;;;;;30.43;10.20;;;3.50;99.90;;;;;;6134782;23;20100;-96
2022/11/21 19:11:59;;;;;;;29.35;10.15;;;3.50;99.90;;;;;;6132915;23;20017;-89
2022/11/21 19:14:25;;;;;;;26.73;10.10;;;3.50;99.90;;;;;;6140940;23;20063;-89
2022/11/21 19:16:51;;;;;;;25.65;10.15;;;3.50;99.90;;;;;;6119280;23;20062;-92
2022/11/21 19:19:17;;;;;;;23.95;9.10;;;3.50;99.90;;;;;;6132830;23;20017;-88
2022/11/21 19:21:42;;;;;;;28.23;10.43;;;3.50;99.90;;;;;;6107586;23;20012;-88
2022/11/21 19:24:13;;;;;;;28.13;9.47;;;3.60;99.90;;;;;;6158905;23;20100;-88
2022/11/21 19:26:39;;;;;;;27.77;9.48;;;3.60;99.90;;;;;;6159047;23;20025;-93
2022/11/21 19:29:04;;;;;;;29.05;9.48;;;3.60;99.90;;;;;;6158965;23;20019;-91
2022/11/21 19:31:30;;;;;;;27.85;10.05;;;3.60;99.90;;;;;;6136043;23;20044;-92
2022/11/21 19:34:16;;;;;;;29.30;10.47;;;3.50;99.90;;;;;;6134301;23;20013;-88
2022/11/21 19:36:42;;;;;;;25.75;9.13;;;3.60;99.90;;;;;;6161049;23;20566;-94
2022/11/21 19:39:08;;;;;;;41.80;23.15;;;3.60;99.90;;;;;;6158221;23;20060;-88
2022/11/21 19:41:34;;;;;;;29.95;9.80;;;3.60;99.90;;;;;;6181672;23;20519;-90
2022/11/21 19:44:01;;;;;;;27.60;10.07;;;3.60;99.90;;;;;;6156700;22;20097;-89
2022/11/21 19:46:31;;;;;;;28.33;9.00;;;3.60;99.90;;;;;;6207292;23;20292;-94
2022/11/21 20:28:17;;;;;;;20.15;9.13;;;3.70;99.90;;;;;;6187357;23;20453;-94
2022/11/21 20:30:47;;;;;;;25.05;9.15;;;3.70;99.90;;;;;;6159717;23;20418;-95
2022/11/21 20:35:48;;;;;;;24.35;9.32;;;3.70;99.90;;;;;;6137722;23;20018;-93
2022/11/21 20:38:14;;;;;;;20.17;8.55;;;3.70;99.90;;;;;;6208156;23;20109;-88
2022/11/21 20:41:06;;;;;;;25.20;9.18;;;3.70;99.90;;;;;;6260355;22;20095;-87
2022/11/21 20:43:42;;;;;;;22.00;8.20;;;3.70;99.90;;;;;;6243541;22;20032;-91
2022/11/21 20:46:14;;;;;;;22.15;9.07;;;3.60;99.90;;;;;;6100254;23;20054;-96
2022/11/21 20:48:55;;;;;;;20.50;8.07;;;3.70;99.90;;;;;;6112942;23;20022;-90
2022/11/21 20:51:22;;;;;;;21.48;9.43;;;3.60;99.90;;;;;;6077393;23;20097;-95
2022/11/21 21:01:33;;;;;;;19.58;8.85;;;3.50;99.90;;;;;;6193366;23;20050;-89
2022/11/21 21:03:59;;;;;;;21.85;7.15;;;3.50;99.90;;;;;;6164737;23;20045;-91
2022/11/21 21:06:34;;;;;;;18.52;8.30;;;3.50;99.90;;;;;;6171105;23;20024;-87
2022/11/21 21:09:00;;;;;;;21.30;8.98;;;3.50;99.90;;;;;;6192663;23;20028;-92
2022/11/21 21:14:01;;;;;;;18.17;8.20;;;3.40;99.90;;;;;;6163634;22;20012;-86
2022/11/21 21:16:33;;;;;;;20.10;8.48;;;3.40;99.90;;;;;;6095527;23;20009;-85
2022/11/21 21:24:22;;;;;;;17.88;7.18;;;3.30;99.90;;;;;;6186055;23;20077;-93
2022/11/21 21:26:48;;;;;;;19.02;7.85;;;3.30;99.90;;;;;;6163783;23;20112;-93
2022/11/21 21:29:17;;;;;;;20.23;9.20;;;3.20;99.90;;;;;;6162510;23;20041;-94
2022/11/21 21:42:01;;;;;;;19.15;8.20;;;3.00;99.90;;;;;;6172144;23;20025;-93
2022/11/21 21:44:26;;;;;;;19.95;8.48;;;3.00;99.90;;;;;;6138866;23;20045;-93
2022/11/21 21:46:58;;;;;;;19.93;8.60;;;2.90;99.90;;;;;;6160658;23;20041;-91
2022/11/21 21:49:24;;;;;;;17.08;7.45;;;2.90;99.90;;;;;;6138001;23;20024;-90
2022/11/21 21:51:53;;;;;;;17.45;7.65;;;2.90;99.90;;;;;;6165548;23;20017;-87
2022/11/21 21:54:19;;;;;;;19.55;8.07;;;2.90;99.90;;;;;;6137287;23;20514;-92
2022/11/21 22:01:57;;;;;;;18.63;8.40;;;2.90;99.90;;;;;;6158867;23;20032;-92
2022/11/21 22:12:09;;;;;;;19.13;8.02;;;2.90;99.90;;;;;;6130989;22;20406;-89
2022/11/21 22:14:34;;;;;;;17.15;8.07;;;2.80;99.90;;;;;;6228267;23;20028;-88
2022/11/21 22:17:03;;;;;;;17.65;7.53;;;2.80;99.90;;;;;;6090554;23;20025;-86
2022/11/21 22:22:04;;;;;;;15.65;7.40;;;2.80;99.90;;;;;;6186887;23;20334;-86
2022/11/21 22:24:30;;;;;;;17.45;7.18;;;2.80;99.90;;;;;;6160468;23;20104;-86